aviador You're here:

SBBV Decoded Metar

BOA VISTA in BRAZIL
Report Time2018-04-24 18:00:00
UTC Time2018-04-24 18:33:13
Flight Rules vfr VFR
Wind170° at 04 kt
W.Decomp.*RWY 26: 1.0 kt HW 3.9 kt LCW
W.Rank170° ranks 16
Current wind is below 170° avg. (4.6)
Visibility9999 m
Phenomena:N/A
Clouds:Broken 030 Hf
Few TCU 035 Hf
Broken 080 Hf
Expected CloudBase > 2,800 ft AGL from Temp-Dew spread
Ceiling3,000 ft
Temp31°C (ISA +17)
Dew Point24°C (66% RH)
Heat Index36.4°C
QNH1012 hPa
Density Alt2,818 ft
Elevation459 ft
Report Wrong Elevation
Raw Report
METAR SBBV 241800Z 17004KT 9999 BKN030 FEW035TCU BKN080 31/24 Q1012=

Extra information for SBBV:More info

Metar Taf Metar & Taf Last 4 Metars F.Rules Stats Wind Profile Meteogram Temp Stats Airport Information Weather charts Add Link Nearby VenuesMetar ALERT Operation Metar Decoded Social comments